createdAt,value
2022-08-17T00:00:43.929Z,22
2022-08-17T00:04:26.768Z,22.6
2022-08-17T00:14:37.235Z,22.1
2022-08-17T00:20:46.703Z,22.2
2022-08-17T00:22:30.878Z,23
2022-08-17T00:23:51.419Z,24.5
2022-08-17T00:27:55.602Z,21.7
2022-08-17T00:30:02.438Z,24.4
2022-08-17T00:33:23.148Z,22.5
2022-08-17T00:34:06.590Z,21.8
2022-08-17T00:36:08.688Z,22.8
2022-08-17T00:40:12.999Z,24.2
2022-08-17T00:42:14.993Z,24
2022-08-17T00:44:20.255Z,23.1
2022-08-17T00:46:22.341Z,22.1
2022-08-17T00:48:30.230Z,24.4
2022-08-17T00:50:26.536Z,22.2
2022-08-17T00:52:28.637Z,23.5
2022-08-17T00:54:30.734Z,23.4
2022-08-17T00:56:32.842Z,23.2
2022-08-17T00:58:38.077Z,24.4
2022-08-17T01:00:40.283Z,25.7
2022-08-17T01:02:42.961Z,24
2022-08-17T01:04:44.383Z,25.3
2022-08-17T01:06:46.480Z,26.5
2022-08-17T01:08:48.587Z,24.4
2022-08-17T01:10:59.416Z,26
2022-08-17T01:12:55.954Z,26.7
2022-08-17T01:14:58.057Z,24.4
2022-08-17T01:17:00.147Z,26.1
2022-08-17T01:18:02.778Z,26.2
2022-08-17T01:20:04.878Z,27.2
2022-08-17T01:22:06.976Z,25.6
2022-08-17T01:24:09.087Z,27
2022-08-17T01:26:14.363Z,26.9
2022-08-17T01:28:53.246Z,27.1
2022-08-17T01:30:58.760Z,25.1
2022-08-17T01:32:20.641Z,28.3
2022-08-17T01:34:22.766Z,25.6
2022-08-17T01:36:24.866Z,27.2
2022-08-17T01:38:27.130Z,26.5
2022-08-17T01:40:32.222Z,30.3
2022-08-17T01:42:34.333Z,28.6
2022-08-17T01:44:36.427Z,28.2
2022-08-17T01:46:38.526Z,29.6
2022-08-17T01:48:40.641Z,29.7
2022-08-17T01:52:44.826Z,27.7
2022-08-17T01:54:50.117Z,33.1
2022-08-17T01:56:52.219Z,30.5
2022-08-17T02:01:01.017Z,31.2
2022-08-17T02:02:58.529Z,31.2
2022-08-17T02:09:08.007Z,30.1
2022-08-17T02:11:11.670Z,33.1
2022-08-17T02:15:40.863Z,31.4
2022-08-17T02:19:45.071Z,28.9
2022-08-17T02:23:52.455Z,29.4
2022-08-17T02:27:56.642Z,29.8
2022-08-17T02:29:58.788Z,29.7
2022-08-17T02:36:08.225Z,30.2
2022-08-17T02:38:10.336Z,30.8
2022-08-17T02:40:12.533Z,29
2022-08-17T02:42:14.539Z,31.5
2022-08-17T02:44:39.995Z,29.8
2022-08-17T02:46:18.765Z,30.3
2022-08-17T02:48:30.521Z,28.4
2022-08-17T02:50:26.127Z,29.3
2022-08-17T02:52:43.674Z,31.1
2022-08-17T02:54:41.067Z,28.8
2022-08-17T02:56:32.440Z,30.7
2022-08-17T02:58:35.980Z,31.5
2022-08-17T03:00:36.656Z,30.8
2022-08-17T03:02:38.757Z,30.9
2022-08-17T03:04:44.035Z,33.7
2022-08-17T03:06:46.135Z,28.9
2022-08-17T03:09:50.880Z,32.1
2022-08-17T03:11:53.090Z,33.1
2022-08-17T03:13:55.103Z,29.2
2022-08-17T03:15:57.212Z,31.4
2022-08-17T03:18:02.470Z,31.4
2022-08-17T03:20:04.587Z,29.8
2022-08-17T03:22:36.077Z,30.9
2022-08-17T03:24:09.223Z,29.4
2022-08-17T03:26:12.408Z,31.6
2022-08-17T03:28:13.013Z,30
2022-08-17T03:30:15.107Z,30.3
2022-08-17T03:32:20.391Z,31.7
2022-08-17T03:34:22.515Z,30.7
2022-08-17T03:36:24.590Z,34.3
2022-08-17T03:38:26.712Z,30.5
2022-08-17T03:40:34.789Z,30.7
2022-08-17T03:46:38.311Z,32.9
2022-08-17T03:48:40.441Z,33.5
2022-08-17T03:50:42.581Z,30.8
2022-08-17T03:52:44.643Z,29.7
2022-08-17T03:54:46.769Z,32
2022-08-17T03:56:48.882Z,31.7
2022-08-17T04:06:03.135Z,33.1
2022-08-17T04:08:05.366Z,30.6
2022-08-17T04:10:07.298Z,30.5
2022-08-17T04:12:09.405Z,32.1
2022-08-17T04:14:14.684Z,32.1
2022-08-17T04:16:16.778Z,30.8
2022-08-17T04:18:18.909Z,31.4
2022-08-17T04:20:21.005Z,33.7
2022-08-17T04:22:31.882Z,30.6
2022-08-17T04:24:25.192Z,34.3
2022-08-17T04:26:52.320Z,32.6
2022-08-17T04:28:32.585Z,35
2022-08-17T04:30:34.700Z,32.2
2022-08-17T04:33:04.552Z,33.1
2022-08-17T04:34:38.891Z,35.4
2022-08-17T04:36:41.041Z,32.2
2022-08-17T04:38:43.108Z,31.3
2022-08-17T04:40:45.217Z,34.7
2022-08-17T04:42:50.635Z,33.3
2022-08-17T04:44:52.599Z,33.1
2022-08-17T04:46:54.699Z,30.3
2022-08-17T04:48:56.821Z,31.1
2022-08-17T04:53:01.322Z,29.7
2022-08-17T04:55:03.514Z,33.2
2022-08-17T04:57:08.728Z,33
2022-08-17T04:59:10.853Z,32.4
2022-08-17T05:01:13.055Z,34.5
2022-08-17T05:02:15.577Z,33.9
2022-08-17T05:04:18.427Z,31.4
2022-08-17T05:08:21.906Z,32.5
2022-08-17T05:10:27.197Z,31.9
2022-08-17T05:12:29.273Z,31.4
2022-08-17T05:14:33.606Z,31.3
2022-08-17T05:16:33.550Z,30.1
2022-08-17T05:18:35.626Z,31.7
2022-08-17T05:22:39.841Z,32
2022-08-17T05:24:55.414Z,32.1
2022-08-17T05:26:47.216Z,30.7
2022-08-17T05:28:49.310Z,29.9
2022-08-17T05:30:51.414Z,29.2
2022-08-17T05:32:53.768Z,29.9
2022-08-17T05:34:55.618Z,24.7
2022-08-17T05:36:57.711Z,25.1
2022-08-17T05:39:03.038Z,27.1
2022-08-17T05:41:05.160Z,27.6
2022-08-17T05:43:07.196Z,30.5
2022-08-17T05:45:09.316Z,30.1
2022-08-17T05:47:11.408Z,31.9
2022-08-17T05:49:13.543Z,31.8
2022-08-17T05:51:15.643Z,33.3
2022-08-17T05:55:22.981Z,37.7
2022-08-17T05:57:25.195Z,37.5
2022-08-17T05:59:53.748Z,43.8
2022-08-17T06:01:55.894Z,40.6
2022-08-17T06:03:57.971Z,37.9
2022-08-17T06:06:03.223Z,41.4
2022-08-17T06:10:07.454Z,39.5
2022-08-17T06:12:09.586Z,40.3
2022-08-17T06:14:11.676Z,40.7
2022-08-17T06:16:25.908Z,40.6
2022-08-17T06:20:21.204Z,43.3
2022-08-17T06:22:24.828Z,41.3
2022-08-17T06:26:30.311Z,43
2022-08-17T06:28:31.106Z,42
2022-08-17T06:30:57.628Z,40.8
2022-08-17T06:32:35.339Z,42.8
2022-08-17T06:34:40.610Z,42.9
2022-08-17T06:36:42.705Z,41.4
2022-08-17T06:38:44.822Z,41.1
2022-08-17T06:42:54.716Z,38.5
2022-08-17T06:44:51.720Z,39.5
2022-08-17T06:46:53.246Z,39.8
2022-08-17T06:53:02.727Z,35.2
2022-08-17T06:54:05.378Z,38.2
2022-08-17T06:56:07.646Z,33.4
2022-08-17T07:08:27.707Z,31.4
2022-08-17T07:10:25.426Z,32.7
2022-08-17T07:12:27.470Z,31.2
2022-08-17T07:14:29.550Z,29.9
2022-08-17T07:16:34.838Z,32.3
2022-08-17T07:18:36.946Z,31
2022-08-17T07:22:57.237Z,26.4
2022-08-17T07:24:43.252Z,27.6
2022-08-17T07:26:45.329Z,26.6
2022-08-17T07:30:52.693Z,28
2022-08-17T07:32:54.794Z,25.6
2022-08-17T07:41:03.445Z,24.5
2022-08-17T07:43:05.284Z,25.1
2022-08-17T07:45:10.525Z,26.2
2022-08-17T07:47:12.625Z,24.9
2022-08-17T07:49:14.726Z,23.8
2022-08-17T07:50:17.338Z,25.9
2022-08-17T07:52:24.246Z,25.7
2022-08-17T07:54:21.510Z,23.7
2022-08-17T07:56:23.608Z,25.5
2022-08-17T07:58:28.872Z,25.5
2022-08-17T08:00:32.240Z,24
2022-08-17T08:02:33.863Z,22.7
2022-08-17T08:05:00.646Z,22.8
2022-08-17T08:06:37.245Z,22
2022-08-17T08:08:39.328Z,22.9
2022-08-17T08:10:42.819Z,22.2
2022-08-17T08:12:46.673Z,22.9
2022-08-17T08:14:48.779Z,22.3
2022-08-17T08:16:50.847Z,22.9
2022-08-17T08:18:54.292Z,21.9
2022-08-17T08:20:55.099Z,21
2022-08-17T08:22:57.095Z,21.2
2022-08-17T08:24:59.183Z,21.8
2022-08-17T08:27:04.456Z,21.5
2022-08-17T08:29:06.534Z,21.4
2022-08-17T08:31:08.623Z,21.6
2022-08-17T08:35:12.769Z,21.7
2022-08-17T08:37:22.734Z,21.3
2022-08-17T08:41:20.026Z,24.8
2022-08-17T08:43:22.113Z,24.7
2022-08-17T08:45:24.212Z,22.7
2022-08-17T08:48:53.101Z,23.3
2022-08-17T08:50:37.072Z,22.9
2022-08-17T08:52:33.083Z,23.4
2022-08-17T08:54:38.325Z,25.2
2022-08-17T08:56:53.754Z,24
2022-08-17T09:00:44.565Z,21.9
2022-08-17T09:02:46.664Z,24
2022-08-17T09:05:13.029Z,23
2022-08-17T09:06:50.824Z,23.9
2022-08-17T09:08:56.091Z,26.4
2022-08-17T09:13:09.344Z,22.4
2022-08-17T09:15:02.351Z,24.6
2022-08-17T09:17:04.381Z,22.6
2022-08-17T09:23:13.799Z,25.2
2022-08-17T09:25:15.867Z,22.8
2022-08-17T09:27:17.946Z,22.5
2022-08-17T09:29:20.026Z,27.8
2022-08-17T09:31:22.114Z,20.5
2022-08-17T09:33:24.185Z,21.5
2022-08-17T09:35:32.939Z,20.6
2022-08-17T09:37:31.499Z,22.6
2022-08-17T09:39:33.691Z,22
2022-08-17T09:41:35.693Z,20.9
2022-08-17T09:44:04.274Z,22.5
2022-08-17T09:46:06.337Z,19.4
2022-08-17T09:48:08.391Z,19.2
2022-08-17T09:50:13.645Z,21.9
2022-08-17T09:52:15.740Z,21.7
2022-08-17T09:54:38.026Z,20.2
2022-08-17T09:56:19.820Z,20.1
2022-08-17T09:58:21.916Z,19.6
2022-08-17T10:00:23.941Z,23.5
2022-08-17T10:02:25.985Z,22.5
2022-08-17T10:04:31.213Z,22.7
2022-08-17T10:06:33.280Z,20.7
2022-08-17T10:08:35.322Z,21
2022-08-17T10:10:37.393Z,18.8
2022-08-17T10:12:39.450Z,20.1
2022-08-17T10:14:43.869Z,18.9
2022-08-17T10:16:43.557Z,22.7
2022-08-17T10:18:48.770Z,40.7
2022-08-17T10:20:50.818Z,38.9
2022-08-17T10:22:54.872Z,25.8
2022-08-17T10:25:22.500Z,20.1
2022-08-17T10:26:57.428Z,24
2022-08-17T10:28:59.059Z,23
2022-08-17T10:31:30.983Z,26
2022-08-17T10:33:06.406Z,25.5
2022-08-17T10:35:08.367Z,24.2
2022-08-17T10:37:10.417Z,26.5
2022-08-17T10:40:15.298Z,23.1
2022-08-17T10:44:38.932Z,24.4
2022-08-17T10:48:26.470Z,26.8
2022-08-17T10:50:28.520Z,23.5
2022-08-17T10:52:30.579Z,20.4
2022-08-17T10:54:32.640Z,23.5
2022-08-17T10:56:34.708Z,25.3
2022-08-17T10:58:36.730Z,23.8
2022-08-17T11:00:42.074Z,33.7
2022-08-17T11:02:44.041Z,22.5
2022-08-17T11:04:46.055Z,24.3
2022-08-17T11:08:50.135Z,24.9
2022-08-17T11:10:52.455Z,28.9
2022-08-17T11:12:54.214Z,26
2022-08-17T11:14:59.448Z,29.2
2022-08-17T11:17:01.501Z,26.1
2022-08-17T11:27:12.160Z,27.3
2022-08-17T11:29:16.918Z,28.3
2022-08-17T11:31:18.966Z,27.8
2022-08-17T11:33:21.015Z,26.9
2022-08-17T11:34:23.646Z,28.1
2022-08-17T11:36:25.683Z,28.1
2022-08-17T11:38:28.574Z,27.8
2022-08-17T11:40:29.757Z,26.9
2022-08-17T11:52:46.799Z,28.5
2022-08-17T12:02:58.630Z,29
2022-08-17T12:05:00.702Z,29.2
2022-08-17T12:11:10.009Z,31.3
2022-08-17T12:13:12.101Z,30
2022-08-17T12:15:15.681Z,33.1
2022-08-17T12:17:39.794Z,41.3
2022-08-17T12:19:19.745Z,34.7
2022-08-17T12:21:21.822Z,31.6
2022-08-17T12:23:23.872Z,31.9
2022-08-17T12:25:29.113Z,31.1
2022-08-17T12:27:53.009Z,33.9
2022-08-17T12:29:35.653Z,31.2
2022-08-17T12:30:35.846Z,36.2
2022-08-17T12:32:37.905Z,32.1
2022-08-17T12:34:39.964Z,31.1
2022-08-17T12:36:42.047Z,32.7
2022-08-17T12:38:47.288Z,32.5
2022-08-17T12:40:49.343Z,31.6
2022-08-17T12:42:51.434Z,33.9
2022-08-17T12:46:55.563Z,36.1
2022-08-17T12:48:59.808Z,32.9
2022-08-17T12:50:59.708Z,32.7
2022-08-17T12:53:04.942Z,32.2
2022-08-17T12:55:07.032Z,35.4
2022-08-17T12:57:09.051Z,33.3
2022-08-17T12:59:11.129Z,32.3
2022-08-17T13:05:17.336Z,31.4
2022-08-17T13:07:22.602Z,28.5
2022-08-17T13:13:28.819Z,31.6
2022-08-17T13:15:30.864Z,30.7
2022-08-17T13:17:32.961Z,29.9
2022-08-17T13:19:40.416Z,30.4
2022-08-17T13:21:40.258Z,32.4
2022-08-17T13:23:53.602Z,33.3
2022-08-17T13:25:44.422Z,30.9
2022-08-17T13:28:13.063Z,35.3
2022-08-17T13:30:15.148Z,29.7
2022-08-17T13:32:19.707Z,33.7
2022-08-17T13:34:22.495Z,32.3
2022-08-17T13:40:28.740Z,37
2022-08-17T13:42:30.849Z,38
2022-08-17T13:44:32.932Z,34.1
2022-08-17T13:46:35.001Z,40.6
2022-08-17T13:52:46.803Z,41.5
2022-08-17T13:54:46.510Z,39.8
2022-08-17T13:56:48.610Z,43.3
2022-08-17T14:00:52.803Z,41
2022-08-17T14:02:58.046Z,45
2022-08-17T14:05:00.140Z,44.1
2022-08-17T14:07:02.227Z,42.9
2022-08-17T14:09:04.359Z,41.2
2022-08-17T14:11:06.429Z,40.4
2022-08-17T14:13:08.511Z,44.3
2022-08-17T14:15:10.608Z,77.1
2022-08-17T14:17:15.863Z,60.4
2022-08-17T14:19:17.955Z,48.7
2022-08-17T14:21:20.034Z,47.3
2022-08-17T14:22:22.654Z,45
2022-08-17T14:24:24.754Z,48
2022-08-17T14:26:26.851Z,48.9
2022-08-17T14:28:28.930Z,46.7
2022-08-17T14:30:34.191Z,48.3
2022-08-17T14:34:38.358Z,45.8
2022-08-17T14:44:52.003Z,50.6
2022-08-17T14:50:58.257Z,52.9
2022-08-17T14:53:01.553Z,52.1
2022-08-17T14:55:02.433Z,48.5
2022-08-17T14:57:22.617Z,47.3
2022-08-17T14:59:09.767Z,46.9
2022-08-17T15:01:11.993Z,41.3
2022-08-17T15:03:13.933Z,44.4
2022-08-17T15:05:16.025Z,41.4
2022-08-17T15:07:18.120Z,40.2
2022-08-17T15:09:20.217Z,42
2022-08-17T15:11:22.271Z,41.2
2022-08-17T15:13:27.555Z,39.4
2022-08-17T15:15:29.648Z,40.1
2022-08-17T15:17:44.662Z,40.7
2022-08-17T15:18:34.375Z,46.8
2022-08-17T15:20:36.483Z,42.1
2022-08-17T15:22:38.529Z,44.8
2022-08-17T15:24:40.614Z,50.8
2022-08-17T15:26:45.872Z,35.5
2022-08-17T15:28:53.546Z,35.7
2022-08-17T15:30:50.008Z,32.5
2022-08-17T15:32:55.169Z,28.1
2022-08-17T15:34:54.196Z,27.2
2022-08-17T15:36:56.272Z,26.7
2022-08-17T15:38:58.358Z,26.3
2022-08-17T15:41:03.598Z,22.8
2022-08-17T15:43:05.682Z,23.4
2022-08-17T15:45:07.739Z,25.7
2022-08-17T15:47:09.815Z,22.5
2022-08-17T15:49:11.890Z,25.1
2022-08-17T15:51:13.977Z,48.2
2022-08-17T15:53:16.038Z,35.5
2022-08-17T15:55:24.097Z,35.8
2022-08-17T15:57:23.363Z,33.9
2022-08-17T15:59:25.409Z,34.2
2022-08-17T16:03:01.271Z,32.8
2022-08-17T16:04:01.763Z,33.5
2022-08-17T16:05:31.725Z,36.2
2022-08-17T16:07:33.737Z,37.5
2022-08-17T16:09:38.973Z,49.3
2022-08-17T16:11:41.065Z,39.9
2022-08-17T16:13:43.132Z,39.1
2022-08-17T16:14:45.743Z,40.1
2022-08-17T16:16:47.819Z,39.9
2022-08-17T16:18:56.252Z,41.8
2022-08-17T16:20:51.978Z,39.9
2022-08-17T16:22:57.246Z,45
2022-08-17T16:24:59.334Z,39.5
2022-08-17T16:27:01.412Z,43.3
2022-08-17T16:29:03.510Z,48.1
2022-08-17T16:33:07.665Z,43.4
2022-08-17T16:35:09.746Z,45
2022-08-17T16:39:17.106Z,43.3
2022-08-17T16:45:23.360Z,44.4
2022-08-17T16:47:25.458Z,42.9
2022-08-17T16:49:37.106Z,42.6
2022-08-17T16:51:32.791Z,46.5
2022-08-17T16:53:34.887Z,45.8
2022-08-17T16:55:36.968Z,42.6
2022-08-17T16:57:47.528Z,45.6
2022-08-17T17:03:45.376Z,45
2022-08-17T17:05:51.413Z,46.1
2022-08-17T17:07:52.815Z,45.9
2022-08-17T17:09:54.806Z,42.2
2022-08-17T17:12:59.470Z,44.5
2022-08-17T17:14:25.492Z,44.2
2022-08-17T17:16:27.569Z,43.2
2022-08-17T17:18:32.818Z,61.8
2022-08-17T17:20:34.911Z,45.8
2022-08-17T17:22:37.004Z,45.1
2022-08-17T17:24:39.106Z,38.5
2022-08-17T17:26:41.204Z,39.7
2022-08-17T17:28:43.288Z,33.2
2022-08-17T17:32:50.636Z,37.7
2022-08-17T17:34:52.725Z,33.6
2022-08-17T17:36:54.822Z,29.9
2022-08-17T17:38:56.904Z,29.5
2022-08-17T17:41:02.501Z,31.9
2022-08-17T17:43:20.426Z,27.6
2022-08-17T17:45:03.185Z,30
2022-08-17T17:47:08.469Z,33.2
2022-08-17T17:49:10.521Z,32.6
2022-08-17T17:51:12.617Z,30.1
2022-08-17T17:53:14.708Z,27.6
2022-08-17T17:55:16.810Z,27.8
2022-08-17T17:57:18.886Z,28.6
2022-08-17T17:59:20.977Z,28.2
2022-08-17T18:10:38.785Z,33
2022-08-17T18:12:40.926Z,31.5
2022-08-17T18:14:46.179Z,34.8
2022-08-17T18:16:48.255Z,35.2
2022-08-17T18:18:50.355Z,33.8
2022-08-17T18:20:53.874Z,33.2
2022-08-17T18:22:54.533Z,34
2022-08-17T18:24:56.629Z,33.2
2022-08-17T18:26:58.751Z,34.6
2022-08-17T18:29:04.003Z,37.7
2022-08-17T18:33:08.192Z,38.6
2022-08-17T18:35:10.290Z,35.5
2022-08-17T18:37:12.372Z,35.1
2022-08-17T18:39:14.525Z,34.1
2022-08-17T18:41:16.579Z,36
2022-08-17T18:43:21.837Z,35.4
2022-08-17T18:45:23.939Z,35.3
2022-08-17T18:47:26.090Z,33.6
2022-08-17T18:49:28.125Z,31.8
2022-08-17T18:51:42.060Z,33.3
2022-08-17T18:53:33.987Z,36.1
2022-08-17T18:55:34.444Z,35.4
2022-08-17T18:57:39.746Z,39
2022-08-17T18:59:41.837Z,37.1
2022-08-17T19:02:46.619Z,33.1
2022-08-17T19:04:48.692Z,34.5
2022-08-17T19:10:58.096Z,37.9
2022-08-17T19:13:01.072Z,37
2022-08-17T19:15:02.302Z,39
2022-08-17T19:23:10.773Z,34.5
2022-08-17T19:27:18.161Z,34.1
2022-08-17T19:29:22.221Z,33.2
2022-08-17T19:31:22.287Z,36.2
2022-08-17T19:33:24.461Z,34.9
2022-08-17T19:35:26.507Z,37.2
2022-08-17T19:37:28.612Z,35.1
2022-08-17T19:39:37.971Z,33.3
2022-08-17T19:41:38.546Z,36.5
2022-08-17T19:43:38.123Z,36
2022-08-17T19:45:40.246Z,38.7
2022-08-17T19:47:54.885Z,39.7
2022-08-17T19:49:44.408Z,40.4
2022-08-17T19:51:46.513Z,40.7
2022-08-17T19:54:05.521Z,41.9
2022-08-17T19:55:53.869Z,40.1
2022-08-17T19:57:56.114Z,41.2
2022-08-17T19:58:58.744Z,41.9
2022-08-17T20:01:00.939Z,42.7
2022-08-17T20:03:06.067Z,43.1
2022-08-17T20:05:05.099Z,43.2
2022-08-17T20:07:10.366Z,45.4
2022-08-17T20:09:14.981Z,45.1
2022-08-17T20:11:14.552Z,45.3
2022-08-17T20:13:16.669Z,41.2
2022-08-17T20:15:18.762Z,43.4
2022-08-17T20:17:21.009Z,45.2
2022-08-17T20:19:22.977Z,42.4
2022-08-17T20:21:28.252Z,42.9
2022-08-17T20:23:30.352Z,41.5
2022-08-17T20:25:32.436Z,41
2022-08-17T20:27:34.586Z,41.3
2022-08-17T20:29:39.927Z,38.7
2022-08-17T20:31:38.757Z,41.2
2022-08-17T20:33:40.873Z,39.3
2022-08-17T20:35:46.107Z,43.9
2022-08-17T20:37:48.225Z,41
2022-08-17T20:39:50.397Z,41
2022-08-17T20:41:52.434Z,40.4
2022-08-17T20:43:54.528Z,41.1
2022-08-17T20:45:56.639Z,38
2022-08-17T20:48:30.528Z,40
2022-08-17T20:50:04.229Z,41.3
2022-08-17T20:52:06.098Z,36.5
2022-08-17T20:54:08.204Z,35.4
2022-08-17T20:56:36.856Z,39.8
2022-08-17T20:58:38.972Z,36.7
2022-08-17T21:00:41.077Z,33.7
2022-08-17T21:02:46.333Z,34.4
2022-08-17T21:04:48.436Z,36.6
2022-08-17T21:06:50.536Z,37.8
2022-08-17T21:08:52.651Z,37.6
2022-08-17T21:12:56.842Z,36.5
2022-08-17T21:14:58.934Z,36.1
2022-08-17T21:17:04.215Z,38.3
2022-08-17T21:19:07.563Z,36.2
2022-08-17T21:21:08.432Z,35.5
2022-08-17T21:23:10.501Z,34.4
2022-08-17T21:25:12.615Z,34.6
2022-08-17T21:27:14.709Z,34
2022-08-17T21:29:30.969Z,35.5
2022-08-17T21:31:22.093Z,36
2022-08-17T21:33:24.197Z,35.9
2022-08-17T21:35:26.316Z,33.5
2022-08-17T21:37:28.412Z,34.8
2022-08-17T21:39:33.244Z,32.5
2022-08-17T21:41:32.601Z,33.5
2022-08-17T21:43:34.737Z,32.7
2022-08-17T21:47:42.102Z,32.7
2022-08-17T21:49:44.212Z,33
2022-08-17T21:50:46.834Z,33.9
2022-08-17T21:52:48.923Z,31.8
2022-08-17T21:54:51.049Z,32.1
2022-08-17T21:56:53.205Z,31.7
2022-08-17T21:58:58.421Z,32.1
2022-08-17T22:01:00.549Z,31.6
2022-08-17T22:03:02.652Z,33.3
2022-08-17T22:05:04.710Z,30.1
2022-08-17T22:07:06.828Z,29.1
2022-08-17T22:09:08.953Z,31.1
2022-08-17T22:15:18.410Z,31.4
2022-08-17T22:23:26.858Z,28.2
2022-08-17T22:31:38.435Z,29.8
2022-08-17T22:33:40.561Z,32.1
2022-08-17T22:35:42.652Z,29.2
2022-08-17T22:37:44.792Z,28.6
2022-08-17T22:39:46.934Z,28.1
2022-08-17T22:41:52.154Z,29.6
2022-08-17T22:46:59.005Z,29.7
2022-08-17T22:49:01.106Z,30.5
2022-08-17T22:51:03.205Z,27.5
2022-08-17T22:53:05.332Z,27
2022-08-17T22:55:10.554Z,30.3
2022-08-17T22:57:12.708Z,28.5
2022-08-17T22:59:14.799Z,25.1
2022-08-17T23:03:19.085Z,24.5
2022-08-17T23:05:21.084Z,23.9
2022-08-17T23:07:23.197Z,23.5
2022-08-17T23:09:28.467Z,24.9
2022-08-17T23:11:36.546Z,22.9
2022-08-17T23:13:32.681Z,23.4
2022-08-17T23:15:34.772Z,23.2
2022-08-17T23:17:37.679Z,24
2022-08-17T23:19:39.010Z,25.8
2022-08-17T23:21:41.099Z,23.2
2022-08-17T23:23:46.346Z,23.9
2022-08-17T23:25:48.450Z,19.3
2022-08-17T23:27:50.730Z,21.2
2022-08-17T23:29:52.661Z,20.2
2022-08-17T23:31:54.787Z,19.9
2022-08-17T23:33:56.917Z,21.4
2022-08-17T23:35:58.995Z,19.6
2022-08-17T23:38:04.245Z,19.7
2022-08-17T23:40:06.438Z,20.6
2022-08-17T23:42:08.479Z,19.7
2022-08-17T23:43:23.327Z,20.7
2022-08-17T23:45:13.217Z,21
2022-08-17T23:47:15.300Z,20.9
2022-08-17T23:49:17.423Z,18.7
2022-08-17T23:51:22.679Z,21.6
2022-08-17T23:53:24.784Z,20.7
2022-08-17T23:55:26.888Z,20.4
2022-08-17T23:57:33.553Z,18.7
2022-08-17T23:59:31.155Z,21.9
